Time;durP1;ratioP1;P1;durP2;ratioP2;P2;SDS_P1;SDS_P2;PMS_P1;PMS_P2;Temp;Humidity;BMP_temperature;BMP_pressure;BME280_temperature;BME280_humidity;BME280_pressure;Samples;Min_cycle;Max_cycle;Signal;HPM_P1;HPM_P2
2022/09/07 00:01:22;;;;;;;10.95;8.80;;;;;;;19.05;100.00;99939.91;4301584;33;34718;-73
2022/09/07 00:04:08;;;;;;;11.73;9.93;;;;;;;19.23;100.00;99941.09;4312529;33;34966;-74
2022/09/07 00:06:55;;;;;;;13.82;10.55;;;;;;;19.03;100.00;99942.22;4294759;33;35452;-73
2022/09/07 00:09:41;;;;;;;11.75;8.88;;;;;;;18.25;100.00;99941.03;4296001;33;34121;-73
2022/09/07 00:12:28;;;;;;;10.70;8.35;;;;;;;18.74;100.00;99937.97;4305986;33;95601;-74
2022/09/07 00:15:15;;;;;;;14.02;9.27;;;;;;;19.31;100.00;99939.31;4309365;33;34977;-73
2022/09/07 00:18:00;;;;;;;12.43;9.43;;;;;;;19.12;100.00;99942.84;4299407;33;37777;-73
2022/09/07 00:20:56;;;;;;;11.73;8.57;;;;;;;18.90;100.00;99935.16;4307160;33;34231;-73
2022/09/07 00:23:43;;;;;;;11.88;8.20;;;;;;;18.99;100.00;99919.94;4298112;33;35633;-73
2022/09/07 00:26:30;;;;;;;10.95;8.68;;;;;;;19.31;100.00;99923.44;4299953;33;34938;-74
2022/09/07 00:29:16;;;;;;;11.45;8.80;;;;;;;19.30;100.00;99921.84;4310228;33;35474;-73
2022/09/07 00:32:03;;;;;;;14.10;8.60;;;;;;;19.42;100.00;99923.69;4299791;33;35019;-73
2022/09/07 00:34:50;;;;;;;12.68;8.75;;;;;;;18.83;100.00;99919.94;4300320;33;35483;-74
2022/09/07 00:37:37;;;;;;;11.35;8.85;;;;;;;19.21;100.00;99915.69;4308910;33;35089;-74
2022/09/07 00:40:23;;;;;;;12.93;9.10;;;;;;;18.75;100.00;99912.59;4305639;33;34981;-74
2022/09/07 00:43:15;;;;;;;12.10;9.68;;;;;;;18.75;100.00;99912.59;4297255;33;34288;-74
2022/09/07 00:46:03;;;;;;;11.70;9.35;;;;;;;18.57;100.00;99911.34;4302337;33;34591;-74
2022/09/07 00:49:11;;;;;;;11.73;9.10;;;;;;;18.66;100.00;99909.19;4297111;33;35080;-73
2022/09/07 00:52:00;;;;;;;13.73;9.90;;;;;;;18.23;100.00;99915.63;4298318;33;35449;-73
2022/09/07 00:54:51;;;;;;;11.60;9.30;;;;;;;17.96;100.00;99921.66;4296853;33;34192;-73
2022/09/07 00:57:40;;;;;;;11.88;9.88;;;;;;;18.49;100.00;99915.09;4299251;33;35542;-73
2022/09/07 01:00:28;;;;;;;10.93;9.60;;;;;;;18.50;100.00;99905.59;4298823;33;35018;-73
2022/09/07 01:03:21;;;;;;;11.43;9.10;;;;;;;18.26;100.00;99910.16;4300252;33;34626;-73
2022/09/07 01:06:17;;;;;;;12.48;9.50;;;;;;;18.96;100.00;99911.53;4311643;33;34193;-73
2022/09/07 01:09:12;;;;;;;13.77;9.68;;;;;;;18.56;100.00;99916.09;4299236;33;35468;-74
2022/09/07 01:11:59;;;;;;;13.35;9.55;;;;;;;18.34;100.00;99911.16;4299701;33;34886;-73
2022/09/07 01:14:49;;;;;;;12.05;9.93;;;;;;;18.52;100.00;99909.63;4299155;33;34574;-73
2022/09/07 01:17:45;;;;;;;12.10;9.38;;;;;;;17.94;100.00;99923.16;4298217;33;34175;-73
2022/09/07 01:20:57;;;;;;;12.40;9.90;;;;;;;17.70;100.00;99921.25;4308938;33;35583;-73
2022/09/07 01:24:02;;;;;;;12.77;9.82;;;;;;;18.40;100.00;99906.94;4309482;33;34961;-74
2022/09/07 01:27:10;;;;;;;10.98;8.60;;;;;;;17.91;100.00;99901.69;4311531;33;34589;-73
2022/09/07 01:30:08;;;;;;;10.55;9.13;;;;;;;18.43;100.00;99907.03;4298970;33;34202;-73
2022/09/07 01:33:36;;;;;;;14.57;9.02;;;;;;;18.23;100.00;99899.78;4299001;33;34693;-73
2022/09/07 01:36:26;;;;;;;9.98;8.60;;;;;;;17.87;100.00;99907.16;4250079;33;34634;-73
2022/09/07 01:39:13;;;;;;;10.95;8.60;;;;;;;18.07;100.00;99898.94;4299639;33;34873;-73
2022/09/07 01:42:10;;;;;;;11.82;7.43;;;;;;;18.35;100.00;99902.47;4285329;33;35215;-73
2022/09/07 01:44:59;;;;;;;11.52;8.45;;;;;;;18.64;100.00;99892.06;4298554;33;35680;-73
2022/09/07 01:47:49;;;;;;;12.20;8.05;;;;;;;18.74;100.00;99894.34;4312068;33;34733;-73
2022/09/07 01:50:53;;;;;;;11.38;8.45;;;;;;;18.40;100.00;99896.66;4300942;33;34450;-73
2022/09/07 01:53:49;;;;;;;12.80;7.93;;;;;;;17.99;100.00;99886.87;4295556;33;34797;-73
2022/09/07 01:56:39;;;;;;;13.15;8.32;;;;;;;18.16;100.00;99880.19;4298653;33;34606;-73
2022/09/07 01:59:33;;;;;;;10.88;8.73;;;;;;;18.29;100.00;99889.22;4297134;33;34563;-74
2022/09/07 02:02:28;;;;;;;9.93;8.05;;;;;;;17.95;100.00;99885.94;4299842;33;33665;-73
2022/09/07 02:05:27;;;;;;;10.48;7.97;;;;;;;18.02;100.00;99885.34;4311892;33;35117;-73
2022/09/07 02:08:24;;;;;;;10.68;8.15;;;;;;;17.98;100.00;99879.69;4298370;33;34684;-73
2022/09/07 02:11:18;;;;;;;12.27;8.90;;;;;;;18.36;100.00;99889.41;4292059;33;35836;-73
2022/09/07 02:14:09;;;;;;;12.15;8.45;;;;;;;17.38;100.00;99882.34;4289170;33;34628;-73
2022/09/07 02:17:04;;;;;;;11.60;9.02;;;;;;;17.62;100.00;99894.53;4298014;33;35110;-73
2022/09/07 02:19:58;;;;;;;12.60;9.02;;;;;;;18.12;100.00;99891.16;4297739;33;33644;-73
2022/09/07 02:22:48;;;;;;;12.60;9.00;;;;;;;17.84;100.00;99888.41;4298208;33;34995;-73
2022/09/07 02:25:39;;;;;;;14.32;9.23;;;;;;;17.38;100.00;99885.09;4297640;33;34696;-73
2022/09/07 02:28:28;;;;;;;17.67;8.40;;;;;;;16.86;100.00;99880.38;4286047;33;34138;-73
2022/09/07 02:31:15;;;;;;;14.50;9.25;;;;;;;17.59;100.00;99878.56;4298293;33;35544;-73
2022/09/07 02:34:02;;;;;;;13.62;9.23;;;;;;;17.33;100.00;99870.69;4299908;33;35166;-73
2022/09/07 02:36:50;;;;;;;12.43;9.02;;;;;;;17.79;100.00;99876.78;4297912;33;34870;-73
2022/09/07 02:39:37;;;;;;;11.00;8.82;;;;;;;18.10;100.00;99876.03;4299341;33;35342;-73
2022/09/07 02:42:23;;;;;;;10.70;7.82;;;;;;;17.65;100.00;99872.44;4299080;33;34720;-73
2022/09/07 02:45:11;;;;;;;10.32;7.80;;;;;;;17.97;100.00;99861.47;4300391;33;34616;-73
2022/09/07 02:48:23;;;;;;;9.18;7.20;;;;;;;17.99;100.00;99861.91;4311944;33;34607;-73
2022/09/07 02:51:38;;;;;;;10.48;7.37;;;;;;;18.32;100.00;99863.53;4295325;33;33349;-73
2022/09/07 02:54:30;;;;;;;10.45;8.27;;;;;;;18.27;99.82;99859.09;4297233;33;34575;-73
2022/09/07 02:57:42;;;;;;;11.90;8.77;;;;;;;17.73;100.00;99859.56;4309261;33;35016;-73
2022/09/07 03:00:33;;;;;;;11.10;8.27;;;;;;;17.16;100.00;99855.16;4307210;33;34717;-73
2022/09/07 03:03:37;;;;;;;10.90;8.88;;;;;;;17.37;100.00;99861.34;4300146;33;33785;-73
2022/09/07 03:06:38;;;;;;;11.63;8.02;;;;;;;17.47;100.00;99866.38;4303013;33;35541;-73
2022/09/07 03:09:29;;;;;;;14.73;10.73;;;;;;;17.28;100.00;99858.72;4297662;33;36036;-73
2022/09/07 03:12:15;;;;;;;15.55;10.60;;;;;;;16.56;100.00;99864.00;4288607;33;34709;-73
2022/09/07 03:15:02;;;;;;;16.02;10.32;;;;;;;16.67;100.00;99863.50;4306941;33;34274;-73
2022/09/07 03:17:48;;;;;;;14.93;10.85;;;;;;;17.14;100.00;99861.06;4308763;33;34723;-73
2022/09/07 03:20:35;;;;;;;12.65;9.82;;;;;;;17.27;100.00;99859.06;4285835;33;35047;-73
2022/09/07 03:23:22;;;;;;;14.50;9.65;;;;;;;17.79;100.00;99855.44;4294800;33;35456;-74
2022/09/07 03:26:19;;;;;;;11.88;9.35;;;;;;;17.04;100.00;99861.53;4308869;33;34147;-73
2022/09/07 03:29:05;;;;;;;14.20;9.38;;;;;;;17.42;100.00;99852.78;4298621;33;34622;-73
2022/09/07 03:31:52;;;;;;;12.55;9.40;;;;;;;17.13;100.00;99855.87;4301975;33;35068;-74
2022/09/07 03:34:38;;;;;;;11.07;8.63;;;;;;;17.44;100.00;99853.22;4313441;33;34848;-73
2022/09/07 03:37:25;;;;;;;11.85;8.73;;;;;;;17.69;100.00;99850.38;4308599;33;34366;-73
2022/09/07 03:40:12;;;;;;;12.73;8.65;;;;;;;18.01;100.00;99848.47;4298365;33;35652;-73
2022/09/07 03:42:59;;;;;;;11.38;8.68;;;;;;;17.96;100.00;99851.53;4304687;33;35014;-73
2022/09/07 03:45:45;;;;;;;12.02;9.00;;;;;;;17.87;100.00;99857.25;4310185;33;35512;-73
2022/09/07 03:48:33;;;;;;;10.88;7.93;;;;;;;17.91;100.00;99855.38;4310231;33;34185;-73
2022/09/07 03:51:19;;;;;;;11.45;9.20;;;;;;;17.83;100.00;99855.53;4298231;33;34722;-73
2022/09/07 03:54:05;;;;;;;12.13;8.77;;;;;;;17.44;100.00;99872.63;4308784;33;34906;-73
2022/09/07 03:56:51;;;;;;;10.82;8.40;;;;;;;17.44;100.00;99867.06;4290961;33;34581;-73
2022/09/07 03:59:38;;;;;;;13.80;9.93;;;;;;;17.22;100.00;99867.62;4294822;33;35121;-73
2022/09/07 04:02:24;;;;;;;13.43;9.30;;;;;;;17.30;100.00;99873.03;4289250;33;34566;-73
2022/09/07 04:05:11;;;;;;;13.45;9.25;;;;;;;17.40;100.00;99873.69;4298333;33;34987;-73
2022/09/07 04:07:57;;;;;;;13.32;10.10;;;;;;;17.69;100.00;99881.66;4309551;33;34574;-73
2022/09/07 04:10:43;;;;;;;13.68;8.77;;;;;;;18.03;100.00;99873.09;4291988;33;34131;-73
2022/09/07 04:13:31;;;;;;;12.48;8.93;;;;;;;18.27;100.00;99877.66;4299434;33;35569;-73
2022/09/07 04:16:22;;;;;;;14.87;8.75;;;;;;;18.00;100.00;99874.59;4300601;33;35011;-73
2022/09/07 04:19:09;;;;;;;11.50;8.95;;;;;;;17.79;100.00;99874.00;4300717;33;35403;-73
2022/09/07 04:21:55;;;;;;;12.30;9.00;;;;;;;17.45;100.00;99873.44;4308065;33;34118;-73
2022/09/07 04:24:41;;;;;;;14.10;9.38;;;;;;;17.41;100.00;99878.87;4310103;33;34643;-73
2022/09/07 04:27:28;;;;;;;12.27;9.80;;;;;;;17.35;100.00;99882.25;4310533;33;36043;-73
2022/09/07 04:30:14;;;;;;;15.00;9.75;;;;;;;17.06;100.00;99882.19;4309906;33;34813;-73
2022/09/07 04:33:00;;;;;;;13.40;10.25;;;;;;;17.42;100.00;99885.22;4298211;33;35275;-73
2022/09/07 04:35:47;;;;;;;13.57;9.10;;;;;;;17.47;100.00;99890.50;4297485;33;34673;-73
2022/09/07 04:38:34;;;;;;;12.00;8.40;;;;;;;17.70;100.00;99897.13;4298474;33;36014;-73
2022/09/07 04:41:20;;;;;;;14.68;9.93;;;;;;;18.13;100.00;99897.50;4309512;33;34777;-73
2022/09/07 04:44:07;;;;;;;13.73;9.52;;;;;;;17.91;100.00;99902.50;4307319;33;35200;-74
2022/09/07 04:46:53;;;;;;;14.32;11.20;;;;;;;17.40;100.00;99901.37;4308304;33;34717;-73
2022/09/07 04:49:39;;;;;;;16.35;11.52;;;;;;;17.29;100.00;99896.31;4299054;33;35941;-73
2022/09/07 04:52:25;;;;;;;14.57;11.20;;;;;;;17.46;100.00;99898.00;4309274;33;34702;-73
2022/09/07 04:55:12;;;;;;;16.83;12.13;;;;;;;17.80;100.00;99900.59;4311162;33;34297;-73
2022/09/07 04:57:58;;;;;;;16.62;11.90;;;;;;;17.40;100.00;99899.41;4298578;33;35603;-72
2022/09/07 05:00:45;;;;;;;18.15;13.18;;;;;;;17.62;100.00;99905.59;4301876;33;35857;-73
2022/09/07 05:03:34;;;;;;;17.45;13.80;;;;;;;17.59;100.00;99901.56;4310192;33;35432;-73
2022/09/07 05:06:22;;;;;;;19.87;15.07;;;;;;;17.48;100.00;99897.69;4301893;33;33978;-73
2022/09/07 05:09:09;;;;;;;19.05;14.77;;;;;;;17.52;100.00;99898.56;4298503;33;35752;-73
2022/09/07 05:11:55;;;;;;;17.10;14.30;;;;;;;17.90;100.00;99895.34;4288576;33;35892;-73
2022/09/07 05:14:42;;;;;;;20.15;15.23;;;;;;;17.40;100.00;99898.62;4300798;33;34647;-73
2022/09/07 05:17:29;;;;;;;17.77;13.38;;;;;;;17.14;100.00;99899.03;4310494;33;35160;-73
2022/09/07 05:20:18;;;;;;;15.93;13.40;;;;;;;18.08;100.00;99900.56;4307095;33;35365;-73
2022/09/07 05:23:05;;;;;;;18.30;14.57;;;;;;;18.06;100.00;99909.22;4309341;33;34974;-73
2022/09/07 05:25:51;;;;;;;16.45;14.48;;;;;;;18.28;100.00;99909.81;4299782;33;34863;-73
2022/09/07 05:28:38;;;;;;;15.85;12.95;;;;;;;18.27;100.00;99908.19;4310064;33;34512;-73
2022/09/07 05:31:24;;;;;;;19.35;14.77;;;;;;;18.31;100.00;99915.44;4291894;33;34627;-73
2022/09/07 05:34:11;;;;;;;17.58;14.30;;;;;;;17.96;100.00;99910.56;4313012;33;34989;-73
2022/09/07 05:37:12;;;;;;;21.20;15.65;;;;;;;18.35;100.00;99918.31;4288810;33;35076;-73
2022/09/07 05:39:58;;;;;;;20.15;15.35;;;;;;;18.42;100.00;99916.53;4291662;33;34658;-73
2022/09/07 05:42:45;;;;;;;19.48;13.68;;;;;;;18.01;100.00;99917.00;4307917;33;34827;-73
2022/09/07 05:45:31;;;;;;;16.95;14.18;;;;;;;18.53;100.00;99916.81;4301414;33;35046;-73
2022/09/07 05:48:17;;;;;;;19.20;12.75;;;;;;;18.52;100.00;99909.63;4308978;33;34320;-73
2022/09/07 05:51:04;;;;;;;13.30;11.10;;;;;;;18.93;100.00;99920.59;4292798;33;34289;-73
2022/09/07 05:53:51;;;;;;;13.93;10.73;;;;;;;18.76;100.00;99913.44;4297698;33;34740;-73
2022/09/07 05:56:37;;;;;;;15.23;10.55;;;;;;;18.70;100.00;99915.66;4298173;33;34632;-73
2022/09/07 05:59:24;;;;;;;15.88;10.35;;;;;;;18.68;100.00;99929.06;4308709;33;34739;-73
2022/09/07 06:02:13;;;;;;;11.00;9.20;;;;;;;19.19;100.00;99925.53;4297035;33;34061;-73
2022/09/07 06:05:00;;;;;;;11.38;9.32;;;;;;;19.36;100.00;99927.13;4299165;33;35374;-74
2022/09/07 06:07:47;;;;;;;10.93;8.95;;;;;;;18.92;100.00;99927.28;4306945;33;34638;-73
2022/09/07 06:10:34;;;;;;;12.10;8.57;;;;;;;19.45;100.00;99924.94;4307399;33;34304;-74
2022/09/07 06:13:28;;;;;;;11.27;8.52;;;;;;;19.20;100.00;99927.16;4308303;33;34875;-73
2022/09/07 06:16:17;;;;;;;12.65;8.52;;;;;;;19.62;100.00;99924.50;4302434;33;35323;-73
2022/09/07 06:19:06;;;;;;;11.27;8.30;;;;;;;19.50;100.00;99927.44;4293922;33;34638;-73
2022/09/07 06:21:52;;;;;;;12.00;7.90;;;;;;;19.72;100.00;99929.53;4299589;33;34303;-74
2022/09/07 06:24:38;;;;;;;13.60;8.75;;;;;;;19.70;100.00;99934.63;4307334;33;34464;-73
2022/09/07 06:27:24;;;;;;;11.27;8.88;;;;;;;19.77;100.00;99933.97;4299335;33;34652;-73
2022/09/07 06:30:11;;;;;;;10.82;8.30;;;;;;;19.72;100.00;99921.19;4300238;33;34969;-74
2022/09/07 06:32:58;;;;;;;11.40;9.13;;;;;;;20.09;100.00;99922.69;4304838;33;34397;-74
2022/09/07 06:35:54;;;;;;;11.73;8.15;;;;;;;20.06;100.00;99924.22;4294491;33;34218;-73
2022/09/07 06:38:41;;;;;;;12.45;8.43;;;;;;;20.26;99.15;99915.84;4307095;33;35683;-74
2022/09/07 06:41:28;;;;;;;11.73;8.73;;;;;;;20.44;97.04;99914.19;4301397;33;34907;-74
2022/09/07 06:44:36;;;;;;;10.95;8.40;;;;;;;19.66;100.00;99919.84;4301091;33;35137;-74
2022/09/07 06:47:22;;;;;;;13.27;8.50;;;;;;;20.16;100.00;99918.06;4298283;33;35099;-74
2022/09/07 06:50:09;;;;;;;10.52;8.10;;;;;;;20.61;97.25;99922.06;4310452;33;34603;-74
2022/09/07 06:52:55;;;;;;;11.18;8.52;;;;;;;20.12;100.00;99931.09;4295560;33;34590;-74
2022/09/07 06:56:04;;;;;;;11.35;8.10;;;;;;;20.21;98.84;99919.75;4304315;33;34614;-74
2022/09/07 06:58:54;;;;;;;13.30;9.27;;;;;;;20.31;97.82;99916.34;4305574;33;35076;-74
2022/09/07 07:01:40;;;;;;;14.23;8.65;;;;;;;20.54;97.52;99916.38;4298663;33;34284;-74
2022/09/07 07:04:27;;;;;;;11.82;8.57;;;;;;;20.60;96.60;99903.75;4309908;33;34600;-74
2022/09/07 07:07:13;;;;;;;9.98;8.23;;;;;;;20.79;96.28;99911.22;4311817;33;34466;-74
2022/09/07 07:09:59;;;;;;;11.02;8.15;;;;;;;20.50;97.11;99920.25;4298048;33;35098;-74
2022/09/07 07:12:46;;;;;;;11.85;8.35;;;;;;;21.30;91.64;99923.94;4311863;33;34655;-74
2022/09/07 07:15:32;;;;;;;11.63;8.65;;;;;;;20.95;97.69;99918.66;4309570;33;34949;-74
2022/09/07 07:18:19;;;;;;;13.00;7.62;;;;;;;21.24;93.36;99923.44;4300709;33;35591;-74
2022/09/07 07:21:15;;;;;;;11.88;8.13;;;;;;;21.15;93.03;99925.72;4300538;33;35249;-74
2022/09/07 07:24:02;;;;;;;11.80;8.30;;;;;;;21.55;90.99;99936.25;4307637;33;34433;-74
2022/09/07 07:26:53;;;;;;;11.82;7.95;;;;;;;21.34;90.70;99930.34;4300455;33;35963;-74
2022/09/07 07:29:39;;;;;;;15.27;8.07;;;;;;;20.94;92.60;99923.38;4288285;33;34683;-74
2022/09/07 07:32:26;;;;;;;11.43;7.68;;;;;;;21.40;89.67;99922.50;4307885;33;34158;-74
2022/09/07 07:35:13;;;;;;;11.70;8.15;;;;;;;21.67;90.79;99921.25;4315168;33;36053;-74
2022/09/07 07:38:00;;;;;;;10.65;7.90;;;;;;;21.91;89.76;99930.31;4313146;33;34970;-74
2022/09/07 07:41:07;;;;;;;10.93;7.78;;;;;;;21.89;86.78;99933.50;4311297;33;34746;-74
2022/09/07 07:44:13;;;;;;;13.52;8.02;;;;;;;22.45;86.90;99921.38;4315291;33;35178;-74
2022/09/07 07:46:59;;;;;;;12.05;8.75;;;;;;;22.01;88.87;99927.66;4312354;33;34622;-74
2022/09/07 07:49:45;;;;;;;10.75;7.80;;;;;;;22.22;87.51;99926.31;4310646;33;35048;-74
2022/09/07 07:52:34;;;;;;;14.27;8.10;;;;;;;22.35;86.14;99930.44;4298607;33;34688;-74
2022/09/07 07:55:39;;;;;;;10.70;7.35;;;;;;;22.74;84.04;99927.22;4312853;33;34244;-74
2022/09/07 07:58:30;;;;;;;11.27;7.93;;;;;;;22.59;83.81;99914.28;4315640;33;34648;-73
2022/09/07 08:01:17;;;;;;;11.05;7.60;;;;;;;22.96;84.01;99919.81;4303939;33;36077;-74
2022/09/07 08:04:03;;;;;;;12.80;8.68;;;;;;;23.05;83.67;99919.47;4301657;33;35555;-74
2022/09/07 08:06:49;;;;;;;9.70;7.18;;;;;;;23.00;85.96;99919.84;4296308;33;35033;-73
2022/09/07 08:09:37;;;;;;;12.10;7.72;;;;;;;23.45;80.75;99921.34;4307752;33;34824;-74
2022/09/07 08:12:23;;;;;;;10.23;7.28;;;;;;;23.27;78.61;99912.03;4313457;33;34968;-73
2022/09/07 08:15:15;;;;;;;11.88;7.12;;;;;;;23.31;79.76;99922.06;4310487;33;35801;-73
2022/09/07 08:18:02;;;;;;;10.35;7.60;;;;;;;23.49;78.80;99921.34;4309783;33;35464;-74
2022/09/07 08:20:48;;;;;;;10.75;7.35;;;;;;;23.30;79.21;99925.22;4306407;33;35638;-73
2022/09/07 08:23:34;;;;;;;10.55;6.93;;;;;;;23.56;79.03;99921.34;4310071;33;34983;-74
2022/09/07 08:26:20;;;;;;;11.10;6.50;;;;;;;23.55;77.89;99908.59;4291127;33;35124;-73
2022/09/07 08:29:06;;;;;;;11.60;7.62;;;;;;;23.66;80.84;99906.62;4299542;33;35056;-74
2022/09/07 08:31:53;;;;;;;12.30;7.60;;;;;;;23.96;79.29;99911.16;4307716;33;35630;-74
2022/09/07 08:34:39;;;;;;;14.60;7.65;;;;;;;23.86;78.87;99914.75;4302027;33;33992;-73
2022/09/07 08:37:25;;;;;;;10.98;8.30;;;;;;;24.28;80.34;99910.44;4307243;33;34657;-73
2022/09/07 08:40:15;;;;;;;9.68;7.00;;;;;;;24.54;75.62;99910.09;4297902;33;35058;-74
2022/09/07 08:43:23;;;;;;;9.00;6.90;;;;;;;24.37;76.76;99906.06;4311844;33;34735;-74
2022/09/07 08:46:42;;;;;;;8.52;6.90;;;;;;;24.91;77.21;99908.91;4312275;33;34970;-74
2022/09/07 08:49:54;;;;;;;9.52;7.65;;;;;;;25.12;72.39;99910.88;4290244;33;35519;-73
2022/09/07 08:53:05;;;;;;;11.95;6.75;;;;;;;24.99;73.42;99904.06;4294126;33;33848;-74
2022/09/07 08:55:59;;;;;;;12.40;6.37;;;;;;;24.61;73.28;99910.09;4309296;33;35245;-73
2022/09/07 08:58:52;;;;;;;8.85;6.95;;;;;;;24.59;74.16;99904.13;4301395;33;35902;-74
2022/09/07 09:01:40;;;;;;;10.13;6.80;;;;;;;25.05;73.26;99896.88;4310590;33;34897;-73
2022/09/07 09:04:28;;;;;;;10.32;6.80;;;;;;;25.29;70.21;99898.84;4310106;33;35059;-73
2022/09/07 09:07:16;;;;;;;10.38;6.55;;;;;;;25.48;69.51;99897.59;4299440;33;34606;-73
2022/09/07 09:10:09;;;;;;;9.90;6.87;;;;;;;25.58;69.08;99893.94;4312313;33;35074;-73
2022/09/07 09:13:01;;;;;;;11.68;6.57;;;;;;;25.84;68.88;99902.25;4307732;33;34881;-74
2022/09/07 09:15:52;;;;;;;11.38;7.60;;;;;;;26.11;66.69;99906.12;4311989;33;34305;-74
2022/09/07 09:19:07;;;;;;;8.57;7.03;;;;;;;26.19;67.94;99910.50;4299665;33;34638;-74
2022/09/07 09:22:07;;;;;;;12.60;8.10;;;;;;;26.16;65.76;99896.50;4309681;33;36076;-74
2022/09/07 09:25:13;;;;;;;9.93;6.80;;;;;;;25.87;67.83;99898.62;4297908;33;34587;-74
2022/09/07 09:27:59;;;;;;;12.10;7.43;;;;;;;26.85;65.19;99897.59;4312257;33;33078;-73
2022/09/07 09:30:49;;;;;;;10.98;8.55;;;;;;;26.40;66.23;99894.72;4299951;33;34353;-73
2022/09/07 09:33:35;;;;;;;11.48;7.65;;;;;;;27.04;61.76;99887.78;4307866;33;34744;-74
2022/09/07 09:36:30;;;;;;;10.98;7.85;;;;;;;26.66;62.20;99884.91;4305089;33;34702;-73
2022/09/07 09:39:36;;;;;;;11.48;7.97;;;;;;;26.84;63.14;99890.38;4294595;33;34795;-74
2022/09/07 09:42:23;;;;;;;10.65;8.20;;;;;;;27.48;59.56;99883.28;4291279;33;34203;-73
2022/09/07 09:45:18;;;;;;;9.50;7.75;;;;;;;26.48;61.54;99874.56;4298526;33;33845;-74
2022/09/07 09:48:09;;;;;;;12.07;8.05;;;;;;;27.42;61.46;99879.34;4288713;33;34751;-74
2022/09/07 09:50:57;;;;;;;11.75;7.95;;;;;;;28.00;59.19;99868.94;4291049;33;33836;-79
2022/09/07 09:54:22;;;;;;;10.45;7.60;;;;;;;28.44;55.76;99865.09;4303178;33;34842;-79
2022/09/07 09:57:17;;;;;;;11.70;7.65;;;;;;;28.13;57.50;99869.97;4299715;33;34954;-77
2022/09/07 10:00:04;;;;;;;11.85;8.25;;;;;;;28.86;55.35;99864.78;4293462;33;34861;-78
2022/09/07 10:03:16;;;;;;;10.70;8.20;;;;;;;28.80;53.72;99863.66;4281075;33;34247;-78
2022/09/07 10:06:23;;;;;;;10.32;8.23;;;;;;;28.50;52.76;99862.59;4287121;33;35833;-77
2022/09/07 10:09:18;;;;;;;10.40;8.30;;;;;;;28.08;54.34;99864.03;4298477;33;34954;-77
2022/09/07 10:12:06;;;;;;;10.32;7.40;;;;;;;28.40;52.77;99863.50;4308062;33;34892;-77
2022/09/07 10:14:55;;;;;;;10.25;7.70;;;;;;;29.10;53.41;99860.72;4287984;33;34502;-77
2022/09/07 10:17:42;;;;;;;10.32;7.37;;;;;;;28.72;54.48;99854.56;4300564;33;34719;-78
2022/09/07 10:20:33;;;;;;;10.38;7.97;;;;;;;29.46;51.20;99851.56;4291239;33;34942;-77
2022/09/07 10:23:22;;;;;;;10.18;8.10;;;;;;;30.12;50.62;99855.38;4309602;33;35520;-79
2022/09/07 10:26:35;;;;;;;10.60;7.68;;;;;;;29.71;50.92;99848.22;4284572;33;35207;-79
2022/09/07 10:29:21;;;;;;;10.75;7.55;;;;;;;31.11;44.53;99845.62;4296661;33;35636;-79
2022/09/07 10:32:20;;;;;;;16.80;7.45;;;;;;;30.72;45.84;99849.47;4313308;33;35070;-79
2022/09/07 10:35:12;;;;;;;9.27;7.43;;;;;;;30.62;46.72;99850.53;4316430;33;35486;-77
2022/09/07 10:38:15;;;;;;;11.43;7.10;;;;;;;31.13;44.38;99848.78;4306429;33;34426;-77
2022/09/07 10:41:06;;;;;;;8.55;7.32;;;;;;;30.85;47.62;99850.38;4298151;33;34808;-79
2022/09/07 10:43:52;;;;;;;14.13;7.93;;;;;;;31.34;44.67;99836.06;4294168;33;35027;-79
2022/09/07 10:46:56;;;;;;;8.45;7.12;;;;;;;31.69;45.39;99838.31;4295063;33;35430;-80
2022/09/07 10:49:52;;;;;;;7.85;7.05;;;;;;;31.51;42.12;99836.84;4309684;33;34978;-79
2022/09/07 10:53:21;;;;;;;10.70;7.50;;;;;;;31.57;42.61;99839.91;4299303;33;34685;-79
2022/09/07 10:56:33;;;;;;;9.80;8.80;;;;;;;32.00;41.16;99835.78;4307218;33;34021;-80
2022/09/07 10:59:30;;;;;;;9.15;7.80;;;;;;;31.11;39.06;99839.19;4280918;33;34685;-80
2022/09/07 11:02:55;;;;;;;8.50;7.70;;;;;;;31.77;39.89;99832.00;4302635;33;34070;-80
2022/09/07 11:06:07;;;;;;;11.05;8.60;;;;;;;31.56;41.15;99835.47;4304927;33;35280;-79
2022/09/07 11:09:25;;;;;;;10.90;9.52;;;;;;;31.87;40.65;99827.22;4302485;33;35015;-80
2022/09/07 11:12:16;;;;;;;14.43;12.85;;;;;;;32.63;38.80;99831.28;4301120;33;34983;-79
2022/09/07 11:15:11;;;;;;;14.27;12.77;;;;;;;33.16;37.39;99834.31;4296835;33;33993;-79
2022/09/07 11:18:22;;;;;;;16.35;14.60;;;;;;;32.99;36.40;99828.03;4299295;33;34380;-79
2022/09/07 11:21:13;;;;;;;15.68;13.98;;;;;;;32.41;38.04;99822.69;4288914;33;34700;-79
2022/09/07 11:24:09;;;;;;;15.30;13.70;;;;;;;32.37;38.60;99822.03;4284509;33;35473;-79
2022/09/07 11:27:00;;;;;;;16.10;14.40;;;;;;;31.99;39.01;99815.16;4298328;33;33871;-79
2022/09/07 11:30:04;;;;;;;19.90;17.92;;;;;;;31.33;42.00;99817.47;4278519;33;35245;-78
2022/09/07 11:32:58;;;;;;;17.85;16.12;;;;;;;31.44;41.22;99810.75;4300275;33;34991;-77
2022/09/07 11:36:01;;;;;;;17.52;15.82;;;;;;;30.91;42.75;99814.66;4288480;33;34687;-78
2022/09/07 11:38:54;;;;;;;17.98;16.20;;;;;;;32.21;39.46;99805.94;4297529;33;34788;-78
2022/09/07 11:41:46;;;;;;;17.65;15.85;;;;;;;32.33;39.19;99812.84;4297364;33;35539;-78
2022/09/07 11:44:35;;;;;;;18.35;16.65;;;;;;;32.65;37.38;99806.91;4298792;33;35429;-78
2022/09/07 11:47:28;;;;;;;19.73;17.70;;;;;;;31.46;42.69;99808.28;4294431;33;34547;-79
2022/09/07 11:50:16;;;;;;;19.83;17.48;;;;;;;32.16;37.82;99810.16;4312714;33;34749;-79
2022/09/07 11:53:06;;;;;;;18.08;16.48;;;;;;;32.03;39.38;99809.34;4295792;33;34638;-77
2022/09/07 11:56:03;;;;;;;18.73;16.40;;;;;;;31.98;39.51;99801.41;4282751;33;34859;-78
2022/09/07 11:59:11;;;;;;;17.10;15.50;;;;;;;32.22;40.40;99802.66;4287717;33;34657;-78
2022/09/07 12:02:17;;;;;;;18.55;16.85;;;;;;;32.97;37.77;99802.13;4308306;33;34290;-77
2022/09/07 12:05:13;;;;;;;18.52;16.62;;;;;;;32.18;37.37;99790.63;4301653;33;35590;-76
2022/09/07 12:08:41;;;;;;;19.00;17.10;;;;;;;33.30;36.81;99781.84;4307665;33;34946;-76
2022/09/07 12:11:43;;;;;;;18.62;16.95;;;;;;;33.67;36.58;99782.09;4301142;33;35757;-79
2022/09/07 12:14:59;;;;;;;18.20;16.40;;;;;;;33.33;36.65;99780.97;4309002;33;33194;-79
2022/09/07 12:17:58;;;;;;;19.42;17.58;;;;;;;32.78;38.91;99781.31;4281769;33;35254;-76
2022/09/07 12:20:47;;;;;;;19.30;17.35;;;;;;;32.77;39.75;99784.62;4309660;33;33610;-78
2022/09/07 12:23:34;;;;;;;17.80;16.17;;;;;;;32.98;38.18;99783.81;4301596;33;34703;-78
2022/09/07 12:26:32;;;;;;;18.30;16.50;;;;;;;33.53;36.09;99781.41;4295576;33;34211;-76
2022/09/07 12:29:22;;;;;;;17.90;16.12;;;;;;;31.78;40.02;99773.28;4308524;33;34740;-79
2022/09/07 12:32:08;;;;;;;18.05;16.42;;;;;;;31.42;42.58;99782.91;4298600;33;35427;-79
2022/09/07 12:35:30;;;;;;;19.37;16.73;;;;;;;31.13;40.51;99775.19;4299510;33;34591;-78
2022/09/07 12:38:16;;;;;;;18.90;16.95;;;;;;;30.95;43.00;99785.47;4308368;33;33943;-81
2022/09/07 12:41:06;;;;;;;18.17;16.27;;;;;;;31.45;40.77;99784.03;4284312;33;35552;-82
2022/09/07 12:44:04;;;;;;;19.65;17.70;;;;;;;30.45;44.06;99774.25;4308078;33;35682;-79
2022/09/07 12:46:53;;;;;;;16.12;14.63;;;;;;;31.29;44.10;99771.53;4304076;33;34863;-78
2022/09/07 12:49:45;;;;;;;17.15;15.65;;;;;;;31.83;41.30;99771.94;4295526;33;34118;-78
2022/09/07 12:52:41;;;;;;;16.58;14.95;;;;;;;32.35;38.97;99759.31;4309160;33;34666;-77
2022/09/07 12:55:31;;;;;;;18.37;16.25;;;;;;;32.49;38.67;99767.34;4297677;33;34918;-78
2022/09/07 12:58:27;;;;;;;17.02;15.23;;;;;;;31.53;40.26;99765.56;4296052;33;35513;-78
2022/09/07 13:01:31;;;;;;;19.67;16.98;;;;;;;29.72;44.19;99764.31;4304879;33;34709;-77
2022/09/07 13:04:29;;;;;;;17.98;16.08;;;;;;;30.06;44.93;99760.28;4309199;33;35638;-78
2022/09/07 13:07:43;;;;;;;17.02;15.48;;;;;;;30.12;45.63;99761.34;4302064;33;35929;-79
2022/09/07 13:10:37;;;;;;;18.17;15.30;;;;;;;29.72;44.55;99759.47;4290550;33;35615;-78
2022/09/07 13:13:28;;;;;;;18.48;16.67;;;;;;;29.33;45.90;99760.31;4297621;33;34425;-79
2022/09/07 13:16:37;;;;;;;16.37;14.65;;;;;;;29.81;45.08;99753.19;4296088;33;34718;-77